Multratug 19 — PCHZ — position and weather

sailwx.info

Track history (hours):
 
Tides and Currents Weather Stations Pressure Air Temp Water Temp Dewpoint Dewpoint Depression Visibility Wind Speed Wind Dir Waves Ship Positions

Multratug 19

Last reported at 2014-Nov-27 21:33 UTC. Time now 2014-Nov-27 21:57 UTC.
Position N 51°08' E 003°46'.

Length 32 m; draft 5.5 m.

Type: Tug. MMSI: 245875000.

Date/timePositionNaut miles runAvg speedWind from/ knotsBaromVisibWave heightAir tempDewpointWater temp
2014-Nov-27 21:33N 51°08' E 003°46'3 2.5
2014-Nov-27 20:33N 51°11' E 003°48'4 4.3
2014-Nov-27 19:34N 51°15' E 003°49'4 4.2
2014-Nov-27 18:34N 51°19' E 003°50'1 0.9
2014-Nov-27 17:34N 51°20' E 003°49'2 1.9
2014-Nov-27 16:34N 51°21' E 003°47'1 1.4
2014-Nov-27 15:33N 51°20' E 003°49'0 0.0
2014-Nov-27 14:33N 51°20' E 003°49'0 0.0
2014-Nov-27 13:34N 51°20' E 003°49'0 0.0
2014-Nov-27 12:33N 51°20' E 003°49'0 0.0
2014-Nov-27 11:33N 51°20' E 003°49'0 0.0
2014-Nov-27 10:33N 51°20' E 003°49'0 0.0
2014-Nov-27 09:33N 51°20' E 003°49'0 0.0
2014-Nov-27 08:33N 51°20' E 003°49'0 0.0
2014-Nov-27 07:33N 51°20' E 003°49'0 0.0
2014-Nov-27 06:34N 51°20' E 003°49'0 0.0
2014-Nov-27 05:34N 51°20' E 003°49'0 0.0
2014-Nov-27 04:34N 51°20' E 003°49'0 0.0
2014-Nov-27 03:34N 51°20' E 003°49'0 0.0
2014-Nov-27 02:33N 51°20' E 003°49'0 0.0
2014-Nov-27 01:34N 51°20' E 003°49'0 0.0
2014-Nov-27 00:34N 51°20' E 003°49'0 0.0
2014-Nov-26 23:33N 51°20' E 003°49'0 0.0
2014-Nov-26 22:33N 51°20' E 003°49'0 0.0
2014-Nov-26 21:33N 51°20' E 003°49'0 0.0
2014-Nov-26 20:34N 51°20' E 003°49'0 0.0
2014-Nov-26 19:34N 51°20' E 003°49'0 0.0
2014-Nov-26 18:34N 51°20' E 003°49'0 0.0
2014-Nov-26 17:34N 51°20' E 003°49'0 0.0
2014-Nov-26 16:34N 51°20' E 003°49'0 0.0
2014-Nov-26 15:34N 51°20' E 003°49'0 0.0
2014-Nov-26 14:34N 51°20' E 003°49'0 0.0
2014-Nov-26 13:33N 51°20' E 003°49'0 0.0
2014-Nov-26 12:33N 51°20' E 003°49'0 0.0
2014-Nov-26 11:33N 51°20' E 003°49'0 0.0
2014-Nov-26 10:34N 51°20' E 003°49'0 0.0
2014-Nov-26 09:33N 51°20' E 003°49'0 0.0
2014-Nov-26 08:33N 51°20' E 003°49'0 0.0
2014-Nov-26 07:34N 51°20' E 003°49'0 0.0
2014-Nov-26 06:34N 51°20' E 003°49'0 0.0
2014-Nov-26 05:33N 51°20' E 003°49'0 0.0
2014-Nov-26 04:33N 51°20' E 003°49'0 0.0
2014-Nov-26 03:34N 51°20' E 003°49'0 0.0
2014-Nov-26 02:34N 51°20' E 003°49'0 0.0
2014-Nov-26 01:34N 51°20' E 003°49'0 0.0
2014-Nov-26 00:34N 51°20' E 003°49'1 0.5
2014-Nov-25 23:33N 51°20' E 003°49'1 0.7
2014-Nov-25 22:33N 51°19' E 003°50'1 1.2
2014-Nov-25 21:34N 51°18' E 003°50'2 1.7
2014-Nov-25 20:34N 51°20' E 003°49'0 0.0
2014-Nov-25 19:34N 51°20' E 003°49'0 0.0
2014-Nov-25 18:34N 51°20' E 003°49'0 0.0
2014-Nov-25 17:34N 51°20' E 003°49'1 0.5
2014-Nov-25 16:33N 51°20' E 003°49'0 0.2
2014-Nov-25 15:33N 51°20' E 003°49'0 0.0
2014-Nov-25 14:33N 51°20' E 003°49'0 0.0
2014-Nov-25 13:33N 51°20' E 003°49'0 0.0
2014-Nov-25 12:33N 51°20' E 003°49'0 0.0
2014-Nov-25 11:33N 51°20' E 003°49'0 0.0
2014-Nov-25 10:34N 51°20' E 003°49'1 1.3
2014-Nov-25 09:33N 51°19' E 003°50'7 7.1
2014-Nov-25 08:33N 51°12' E 003°48'7 6.9
2014-Nov-25 07:33N 51°05' E 003°45'2 1.7
2014-Nov-25 06:33N 51°07' E 003°45'5 5.1
2014-Nov-25 05:33N 51°12' E 003°48'5 4.7
2014-Nov-25 04:33N 51°16' E 003°50'3 3.4
2014-Nov-25 03:33N 51°20' E 003°49'1 1.0
2014-Nov-25 02:34N 51°21' E 003°49'0 0.4
2014-Nov-25 01:34N 51°20' E 003°49'0 0.0
2014-Nov-25 00:34N 51°20' E 003°49'0 0.0
2014-Nov-24 23:34N 51°20' E 003°49'0 0.0
2014-Nov-24 22:34N 51°20' E 003°49'0 0.0
2014-Nov-24 21:34N 51°20' E 003°49'0 0.0
2014-Nov-24 20:34N 51°20' E 003°49'0 0.0
2014-Nov-24 19:34N 51°20' E 003°49'0 0.0
2014-Nov-24 18:34N 51°20' E 003°49'0 0.0
2014-Nov-24 17:34N 51°20' E 003°49'0 0.0
2014-Nov-24 16:33N 51°20' E 003°49'0 0.0
2014-Nov-24 15:34N 51°20' E 003°49'0 0.0
2014-Nov-24 14:34N 51°20' E 003°49'0 0.0
2014-Nov-24 13:34N 51°20' E 003°49'0 0.0
2014-Nov-24 12:34N 51°20' E 003°49'0 0.0
2014-Nov-24 11:33N 51°20' E 003°49'0 0.0
2014-Nov-24 10:34N 51°20' E 003°49'0 0.0
2014-Nov-24 09:34N 51°20' E 003°49'0 0.0
2014-Nov-24 08:34N 51°20' E 003°49'0 0.0
2014-Nov-24 07:34N 51°20' E 003°49'0 0.0
2014-Nov-24 06:34N 51°20' E 003°49'0 0.0
2014-Nov-24 05:34N 51°20' E 003°49'0 0.0
2014-Nov-24 04:34N 51°20' E 003°49'0 0.0
2014-Nov-24 03:34N 51°20' E 003°49'0 0.0
2014-Nov-24 02:34N 51°20' E 003°49'0 0.0
2014-Nov-24 01:34N 51°20' E 003°49'0 0.0
2014-Nov-24 00:34N 51°20' E 003°49'0 0.0
2014-Nov-23 23:34N 51°20' E 003°49'0 0.0
2014-Nov-23 22:34N 51°20' E 003°49'0 0.0
2014-Nov-23 21:34N 51°20' E 003°49'0 0.0
2014-Nov-23 20:34N 51°20' E 003°49'0 0.0
2014-Nov-23 19:34N 51°20' E 003°49'0 0.0
2014-Nov-23 18:34N 51°20' E 003°49'0 0.0
2014-Nov-23 17:34N 51°20' E 003°49'0 0.0
2014-Nov-23 16:34N 51°20' E 003°49'1 1.2
2014-Nov-23 15:33N 51°21' E 003°47'1 1.1
2014-Nov-23 14:33N 51°21' E 003°46'1 0.8
2014-Nov-23 13:33N 51°21' E 003°47'2 1.7
2014-Nov-23 12:33N 51°20' E 003°49'0 0.0
2014-Nov-23 11:34N 51°20' E 003°49'0 0.0
2014-Nov-23 10:33N 51°20' E 003°49'0 0.0
2014-Nov-23 09:34N 51°20' E 003°49'0 0.0
2014-Nov-23 08:34N 51°20' E 003°49'0 0.0
2014-Nov-23 07:34N 51°20' E 003°49'0 0.0
2014-Nov-23 06:34N 51°20' E 003°49'0 0.0
2014-Nov-23 05:34N 51°20' E 003°49'0 0.0
2014-Nov-23 04:34N 51°20' E 003°49'0 0.0
2014-Nov-23 03:34N 51°20' E 003°49'0 0.0
2014-Nov-23 02:34N 51°20' E 003°49'0 0.0
2014-Nov-23 01:34N 51°20' E 003°49'0 0.0
2014-Nov-23 00:34N 51°20' E 003°49'0 0.0
2014-Nov-22 23:33N 51°20' E 003°49'0 0.0
2014-Nov-22 22:33N 51°20' E 003°49'0 0.0
2014-Nov-22 21:34N 51°20' E 003°49'0 0.0
2014-Nov-22 20:34N 51°20' E 003°49'0 0.0
2014-Nov-22 19:34N 51°20' E 003°49'0 0.0
2014-Nov-22 18:34N 51°20' E 003°49'0 0.0
2014-Nov-22 17:34N 51°20' E 003°49'0 0.0
2014-Nov-22 16:34N 51°20' E 003°49'0 0.0
2014-Nov-22 15:34N 51°20' E 003°49'0 0.0
2014-Nov-22 14:34N 51°20' E 003°49'0 0.0
2014-Nov-22 13:33N 51°20' E 003°49'0 0.0
2014-Nov-22 12:34N 51°20' E 003°49'0 0.0
2014-Nov-22 11:34N 51°20' E 003°49'0 0.0
2014-Nov-22 10:34N 51°20' E 003°49'0 0.0
2014-Nov-22 09:34N 51°20' E 003°49'0 0.0
2014-Nov-22 08:34N 51°20' E 003°49'0 0.0
2014-Nov-22 07:34N 51°20' E 003°49'0 0.0
2014-Nov-22 06:34N 51°20' E 003°49'0 0.0
2014-Nov-22 05:34N 51°20' E 003°49'0 0.0
2014-Nov-22 04:34N 51°20' E 003°49'0 0.0
2014-Nov-22 03:34N 51°20' E 003°49'1 0.8
2014-Nov-22 02:33N 51°19' E 003°49'1 1.5
2014-Nov-22 01:34N 51°18' E 003°50'0 0.1
2014-Nov-22 00:33N 51°18' E 003°50'2 2.3
2014-Nov-21 23:34N 51°20' E 003°49'0 0.2
2014-Nov-21 22:33N 51°20' E 003°49'0 0.0
2014-Nov-21 21:34N 51°20' E 003°49'0 0.0
2014-Nov-21 20:34N 51°20' E 003°49'0 0.0
2014-Nov-21 19:34N 51°20' E 003°49'0 0.0
2014-Nov-21 18:34N 51°20' E 003°49'0 0.0
2014-Nov-21 17:34N 51°20' E 003°49'0 0.0
2014-Nov-21 16:34N 51°20' E 003°49'0 0.0
2014-Nov-21 15:34N 51°20' E 003°49'0 0.0
2014-Nov-21 14:34N 51°20' E 003°49'0 0.0
2014-Nov-21 13:34N 51°20' E 003°49'0 0.0
2014-Nov-21 12:34N 51°20' E 003°49'0 0.0
2014-Nov-21 11:34N 51°20' E 003°49'0 0.0
2014-Nov-21 10:34N 51°20' E 003°49'0 0.0
2014-Nov-21 09:34N 51°20' E 003°49'0 0.0
2014-Nov-21 08:33N 51°20' E 003°49'0 0.0
2014-Nov-21 07:34N 51°20' E 003°49'0 0.0
2014-Nov-21 06:33N 51°20' E 003°49'0 0.0
2014-Nov-21 05:34N 51°20' E 003°49'0 0.2
2014-Nov-21 04:34N 51°20' E 003°49'0 0.0
2014-Nov-21 03:34N 51°20' E 003°49'0 0.0
2014-Nov-21 02:34N 51°20' E 003°49'0 0.2
2014-Nov-21 01:34N 51°21' E 003°49'0 0.4
2014-Nov-21 00:34N 51°20' E 003°49'0 0.5
2014-Nov-20 23:34N 51°20' E 003°49'1 0.9
2014-Nov-20 22:33N 51°19' E 003°50'2 2.1
2014-Nov-20 21:33N 51°17' E 003°50'6 6.4
2014-Nov-20 20:34N 51°11' E 003°48'3 3.4
2014-Nov-20 19:34N 51°08' E 003°46'2 1.6
2014-Nov-20 18:33N 51°09' E 003°47'5 4.6
2014-Nov-20 17:33N 51°14' E 003°48'6 6.2
2014-Nov-20 16:34N 51°20' E 003°49'1 0.5
2014-Nov-20 15:34N 51°20' E 003°49'0 0.2
2014-Nov-20 14:34N 51°20' E 003°49'0 0.0
2014-Nov-20 13:34N 51°20' E 003°49'0 0.0
2014-Nov-20 12:34N 51°20' E 003°49'4 3.8
2014-Nov-20 11:33N 51°22' E 003°44'6 5.7
2014-Nov-20 10:33N 51°28' E 003°40'0 0.0
2014-Nov-20 09:33N 51°28' E 003°40'0 0.0
2014-Nov-20 08:33N 51°28' E 003°40'0 0.0
2014-Nov-20 07:34N 51°28' E 003°40'0 0.0
2014-Nov-20 06:33N 51°28' E 003°40'0 0.0
2014-Nov-20 05:33N 51°28' E 003°40'0 0.0
2014-Nov-20 04:33N 51°28' E 003°40'0 0.0
2014-Nov-20 03:33N 51°28' E 003°40'0 0.0
2014-Nov-20 02:33N 51°28' E 003°40'0 0.0
2014-Nov-20 01:33N 51°28' E 003°40'2 1.5
2014-Nov-20 00:33N 51°27' E 003°42'3 3.4
2014-Nov-19 23:33N 51°26' E 003°37'3 2.6
2014-Nov-19 22:34N 51°28' E 003°40'0 0.0
2014-Nov-19 21:33N 51°28' E 003°40'0 0.0
2014-Nov-19 20:33N 51°28' E 003°40'0 0.0
2014-Nov-19 19:33N 51°28' E 003°40'0 0.0
2014-Nov-19 18:33N 51°28' E 003°40'1 1.1
2014-Nov-19 17:33N 51°28' E 003°42'1 1.1
2014-Nov-19 16:33N 51°28' E 003°40'1 1.3
2014-Nov-19 15:34N 51°28' E 003°42'1 0.8
2014-Nov-19 14:34N 51°28' E 003°41'1 1.0
2014-Nov-19 13:34N 51°27' E 003°42'1 1.5
2014-Nov-19 12:33N 51°28' E 003°40'0 0.0
2014-Nov-19 11:33N 51°28' E 003°40'1 1.4
2014-Nov-19 10:33N 51°27' E 003°42'1 1.3
2014-Nov-19 09:33N 51°28' E 003°41'0 0.1
2014-Nov-19 08:33N 51°28' E 003°40'0 0.0
2014-Nov-19 07:33N 51°28' E 003°40'0 0.0
2014-Nov-19 06:33N 51°28' E 003°40'0 0.0
2014-Nov-19 05:33N 51°28' E 003°40'0 0.0
2014-Nov-19 04:33N 51°28' E 003°40'0 0.0
2014-Nov-19 03:33N 51°28' E 003°40'0 0.0
2014-Nov-19 02:34N 51°28' E 003°40'0 0.0
2014-Nov-19 01:34N 51°28' E 003°40'0 0.0
2014-Nov-19 00:33N 51°28' E 003°40'0 0.0
2014-Nov-18 23:34N 51°28' E 003°40'0 0.0
2014-Nov-18 22:33N 51°28' E 003°40'0 0.0
2014-Nov-18 21:33N 51°28' E 003°40'0 0.0
2014-Nov-18 20:33N 51°28' E 003°40'1 1.0
2014-Nov-18 19:33N 51°28' E 003°42'1 0.8
2014-Nov-18 18:33N 51°27' E 003°42'3 3.3
2014-Nov-18 17:33N 51°26' E 003°37'2 2.4
2014-Nov-18 16:34N 51°28' E 003°40'0 0.0
2014-Nov-18 15:33N 51°28' E 003°40'0 0.0
2014-Nov-18 14:33N 51°28' E 003°40'0 0.0
2014-Nov-18 13:33N 51°28' E 003°40'0 0.0
2014-Nov-18 12:33N 51°28' E 003°40'0 0.0
2014-Nov-18 11:33N 51°28' E 003°40'2 1.5
2014-Nov-18 10:33N 51°29' E 003°42'2 1.5
2014-Nov-18 09:33N 51°28' E 003°40'0 0.0
2014-Nov-18 08:33N 51°28' E 003°40'0 0.0
2014-Nov-18 07:33N 51°28' E 003°40'0 0.0
2014-Nov-18 06:33N 51°28' E 003°40'0 0.0
2014-Nov-18 05:33N 51°28' E 003°40'0 0.0
2014-Nov-18 04:34N 51°28' E 003°40'0 0.0
2014-Nov-18 03:34N 51°28' E 003°40'0 0.0
2014-Nov-18 02:33N 51°28' E 003°40'0 0.0
2014-Nov-18 01:33N 51°28' E 003°40'0 0.0
2014-Nov-18 00:33N 51°28' E 003°40'0 0.0
2014-Nov-17 23:33N 51°28' E 003°40'0 0.0
2014-Nov-17 22:33N 51°28' E 003°40'  
Track history (hours):
 
Tides and Currents Weather Stations Pressure Air Temp Water Temp Dewpoint Dewpoint Depression Visibility Wind Speed Wind Dir Waves Ship Positions

Multratug 19

Last reported at 2014-Nov-27 21:33 UTC. Time now 2014-Nov-27 21:57 UTC.
Position N 51°08' E 003°46'.

Length 32 m; draft 5.5 m.

Type: Tug. MMSI: 245875000.

Date/timePositionNaut miles runAvg speedWind from/ knotsBaromVisibWave heightAir tempDewpointWater temp
2014-Nov-27 21:33N 51°08' E 003°46'3 2.5
2014-Nov-27 20:33N 51°11' E 003°48'4 4.3
2014-Nov-27 19:34N 51°15' E 003°49'4 4.2
2014-Nov-27 18:34N 51°19' E 003°50'1 0.9
2014-Nov-27 17:34N 51°20' E 003°49'2 1.9
2014-Nov-27 16:34N 51°21' E 003°47'1 1.4
2014-Nov-27 15:33N 51°20' E 003°49'0 0.0
2014-Nov-27 14:33N 51°20' E 003°49'0 0.0
2014-Nov-27 13:34N 51°20' E 003°49'0 0.0
2014-Nov-27 12:33N 51°20' E 003°49'0 0.0
2014-Nov-27 11:33N 51°20' E 003°49'0 0.0
2014-Nov-27 10:33N 51°20' E 003°49'0 0.0
2014-Nov-27 09:33N 51°20' E 003°49'0 0.0
2014-Nov-27 08:33N 51°20' E 003°49'0 0.0
2014-Nov-27 07:33N 51°20' E 003°49'0 0.0
2014-Nov-27 06:34N 51°20' E 003°49'0 0.0
2014-Nov-27 05:34N 51°20' E 003°49'0 0.0
2014-Nov-27 04:34N 51°20' E 003°49'0 0.0
2014-Nov-27 03:34N 51°20' E 003°49'0 0.0
2014-Nov-27 02:33N 51°20' E 003°49'0 0.0
2014-Nov-27 01:34N 51°20' E 003°49'0 0.0
2014-Nov-27 00:34N 51°20' E 003°49'0 0.0
2014-Nov-26 23:33N 51°20' E 003°49'0 0.0
2014-Nov-26 22:33N 51°20' E 003°49'0 0.0
2014-Nov-26 21:33N 51°20' E 003°49'0 0.0
2014-Nov-26 20:34N 51°20' E 003°49'0 0.0
2014-Nov-26 19:34N 51°20' E 003°49'0 0.0
2014-Nov-26 18:34N 51°20' E 003°49'0 0.0
2014-Nov-26 17:34N 51°20' E 003°49'0 0.0
2014-Nov-26 16:34N 51°20' E 003°49'0 0.0
2014-Nov-26 15:34N 51°20' E 003°49'0 0.0
2014-Nov-26 14:34N 51°20' E 003°49'0 0.0
2014-Nov-26 13:33N 51°20' E 003°49'0 0.0
2014-Nov-26 12:33N 51°20' E 003°49'0 0.0
2014-Nov-26 11:33N 51°20' E 003°49'0 0.0
2014-Nov-26 10:34N 51°20' E 003°49'0 0.0
2014-Nov-26 09:33N 51°20' E 003°49'0 0.0
2014-Nov-26 08:33N 51°20' E 003°49'0 0.0
2014-Nov-26 07:34N 51°20' E 003°49'0 0.0
2014-Nov-26 06:34N 51°20' E 003°49'0 0.0
2014-Nov-26 05:33N 51°20' E 003°49'0 0.0
2014-Nov-26 04:33N 51°20' E 003°49'0 0.0
2014-Nov-26 03:34N 51°20' E 003°49'0 0.0
2014-Nov-26 02:34N 51°20' E 003°49'0 0.0
2014-Nov-26 01:34N 51°20' E 003°49'0 0.0
2014-Nov-26 00:34N 51°20' E 003°49'1 0.5
2014-Nov-25 23:33N 51°20' E 003°49'1 0.7
2014-Nov-25 22:33N 51°19' E 003°50'1 1.2
2014-Nov-25 21:34N 51°18' E 003°50'2 1.7
2014-Nov-25 20:34N 51°20' E 003°49'0 0.0
2014-Nov-25 19:34N 51°20' E 003°49'0 0.0
2014-Nov-25 18:34N 51°20' E 003°49'0 0.0
2014-Nov-25 17:34N 51°20' E 003°49'1 0.5
2014-Nov-25 16:33N 51°20' E 003°49'0 0.2
2014-Nov-25 15:33N 51°20' E 003°49'0 0.0
2014-Nov-25 14:33N 51°20' E 003°49'0 0.0
2014-Nov-25 13:33N 51°20' E 003°49'0 0.0
2014-Nov-25 12:33N 51°20' E 003°49'0 0.0
2014-Nov-25 11:33N 51°20' E 003°49'0 0.0
2014-Nov-25 10:34N 51°20' E 003°49'1 1.3
2014-Nov-25 09:33N 51°19' E 003°50'7 7.1
2014-Nov-25 08:33N 51°12' E 003°48'7 6.9
2014-Nov-25 07:33N 51°05' E 003°45'2 1.7
2014-Nov-25 06:33N 51°07' E 003°45'5 5.1
2014-Nov-25 05:33N 51°12' E 003°48'5 4.7
2014-Nov-25 04:33N 51°16' E 003°50'3 3.4
2014-Nov-25 03:33N 51°20' E 003°49'1 1.0
2014-Nov-25 02:34N 51°21' E 003°49'0 0.4
2014-Nov-25 01:34N 51°20' E 003°49'0 0.0
2014-Nov-25 00:34N 51°20' E 003°49'0 0.0
2014-Nov-24 23:34N 51°20' E 003°49'0 0.0
2014-Nov-24 22:34N 51°20' E 003°49'0 0.0
2014-Nov-24 21:34N 51°20' E 003°49'0 0.0
2014-Nov-24 20:34N 51°20' E 003°49'0 0.0
2014-Nov-24 19:34N 51°20' E 003°49'0 0.0
2014-Nov-24 18:34N 51°20' E 003°49'0 0.0
2014-Nov-24 17:34N 51°20' E 003°49'0 0.0
2014-Nov-24 16:33N 51°20' E 003°49'0 0.0
2014-Nov-24 15:34N 51°20' E 003°49'0 0.0
2014-Nov-24 14:34N 51°20' E 003°49'0 0.0
2014-Nov-24 13:34N 51°20' E 003°49'0 0.0
2014-Nov-24 12:34N 51°20' E 003°49'0 0.0
2014-Nov-24 11:33N 51°20' E 003°49'0 0.0
2014-Nov-24 10:34N 51°20' E 003°49'0 0.0
2014-Nov-24 09:34N 51°20' E 003°49'0 0.0
2014-Nov-24 08:34N 51°20' E 003°49'0 0.0
2014-Nov-24 07:34N 51°20' E 003°49'0 0.0
2014-Nov-24 06:34N 51°20' E 003°49'0 0.0
2014-Nov-24 05:34N 51°20' E 003°49'0 0.0
2014-Nov-24 04:34N 51°20' E 003°49'0 0.0
2014-Nov-24 03:34N 51°20' E 003°49'0 0.0
2014-Nov-24 02:34N 51°20' E 003°49'0 0.0
2014-Nov-24 01:34N 51°20' E 003°49'0 0.0
2014-Nov-24 00:34N 51°20' E 003°49'0 0.0
2014-Nov-23 23:34N 51°20' E 003°49'0 0.0
2014-Nov-23 22:34N 51°20' E 003°49'0 0.0
2014-Nov-23 21:34N 51°20' E 003°49'0 0.0
2014-Nov-23 20:34N 51°20' E 003°49'0 0.0
2014-Nov-23 19:34N 51°20' E 003°49'0 0.0
2014-Nov-23 18:34N 51°20' E 003°49'0 0.0
2014-Nov-23 17:34N 51°20' E 003°49'0 0.0
2014-Nov-23 16:34N 51°20' E 003°49'1 1.2
2014-Nov-23 15:33N 51°21' E 003°47'1 1.1
2014-Nov-23 14:33N 51°21' E 003°46'1 0.8
2014-Nov-23 13:33N 51°21' E 003°47'2 1.7
2014-Nov-23 12:33N 51°20' E 003°49'0 0.0
2014-Nov-23 11:34N 51°20' E 003°49'0 0.0
2014-Nov-23 10:33N 51°20' E 003°49'0 0.0
2014-Nov-23 09:34N 51°20' E 003°49'0 0.0
2014-Nov-23 08:34N 51°20' E 003°49'0 0.0
2014-Nov-23 07:34N 51°20' E 003°49'0 0.0
2014-Nov-23 06:34N 51°20' E 003°49'0 0.0
2014-Nov-23 05:34N 51°20' E 003°49'0 0.0
2014-Nov-23 04:34N 51°20' E 003°49'0 0.0
2014-Nov-23 03:34N 51°20' E 003°49'0 0.0
2014-Nov-23 02:34N 51°20' E 003°49'0 0.0
2014-Nov-23 01:34N 51°20' E 003°49'0 0.0
2014-Nov-23 00:34N 51°20' E 003°49'0 0.0
2014-Nov-22 23:33N 51°20' E 003°49'0 0.0
2014-Nov-22 22:33N 51°20' E 003°49'0 0.0
2014-Nov-22 21:34N 51°20' E 003°49'0 0.0
2014-Nov-22 20:34N 51°20' E 003°49'0 0.0
2014-Nov-22 19:34N 51°20' E 003°49'0 0.0
2014-Nov-22 18:34N 51°20' E 003°49'0 0.0
2014-Nov-22 17:34N 51°20' E 003°49'0 0.0
2014-Nov-22 16:34N 51°20' E 003°49'0 0.0
2014-Nov-22 15:34N 51°20' E 003°49'0 0.0
2014-Nov-22 14:34N 51°20' E 003°49'0 0.0
2014-Nov-22 13:33N 51°20' E 003°49'0 0.0
2014-Nov-22 12:34N 51°20' E 003°49'0 0.0
2014-Nov-22 11:34N 51°20' E 003°49'0 0.0
2014-Nov-22 10:34N 51°20' E 003°49'0 0.0
2014-Nov-22 09:34N 51°20' E 003°49'0 0.0
2014-Nov-22 08:34N 51°20' E 003°49'0 0.0
2014-Nov-22 07:34N 51°20' E 003°49'0 0.0
2014-Nov-22 06:34N 51°20' E 003°49'0 0.0
2014-Nov-22 05:34N 51°20' E 003°49'0 0.0
2014-Nov-22 04:34N 51°20' E 003°49'0 0.0
2014-Nov-22 03:34N 51°20' E 003°49'1 0.8
2014-Nov-22 02:33N 51°19' E 003°49'1 1.5
2014-Nov-22 01:34N 51°18' E 003°50'0 0.1
2014-Nov-22 00:33N 51°18' E 003°50'2 2.3
2014-Nov-21 23:34N 51°20' E 003°49'0 0.2
2014-Nov-21 22:33N 51°20' E 003°49'0 0.0
2014-Nov-21 21:34N 51°20' E 003°49'0 0.0
2014-Nov-21 20:34N 51°20' E 003°49'0 0.0
2014-Nov-21 19:34N 51°20' E 003°49'0 0.0
2014-Nov-21 18:34N 51°20' E 003°49'0 0.0
2014-Nov-21 17:34N 51°20' E 003°49'0 0.0
2014-Nov-21 16:34N 51°20' E 003°49'0 0.0
2014-Nov-21 15:34N 51°20' E 003°49'0 0.0
2014-Nov-21 14:34N 51°20' E 003°49'0 0.0
2014-Nov-21 13:34N 51°20' E 003°49'0 0.0
2014-Nov-21 12:34N 51°20' E 003°49'0 0.0
2014-Nov-21 11:34N 51°20' E 003°49'0 0.0
2014-Nov-21 10:34N 51°20' E 003°49'0 0.0
2014-Nov-21 09:34N 51°20' E 003°49'0 0.0
2014-Nov-21 08:33N 51°20' E 003°49'0 0.0
2014-Nov-21 07:34N 51°20' E 003°49'0 0.0
2014-Nov-21 06:33N 51°20' E 003°49'0 0.0
2014-Nov-21 05:34N 51°20' E 003°49'0 0.2
2014-Nov-21 04:34N 51°20' E 003°49'0 0.0
2014-Nov-21 03:34N 51°20' E 003°49'0 0.0
2014-Nov-21 02:34N 51°20' E 003°49'0 0.2
2014-Nov-21 01:34N 51°21' E 003°49'0 0.4
2014-Nov-21 00:34N 51°20' E 003°49'0 0.5
2014-Nov-20 23:34N 51°20' E 003°49'1 0.9
2014-Nov-20 22:33N 51°19' E 003°50'2 2.1
2014-Nov-20 21:33N 51°17' E 003°50'6 6.4
2014-Nov-20 20:34N 51°11' E 003°48'3 3.4
2014-Nov-20 19:34N 51°08' E 003°46'2 1.6
2014-Nov-20 18:33N 51°09' E 003°47'5 4.6
2014-Nov-20 17:33N 51°14' E 003°48'6 6.2
2014-Nov-20 16:34N 51°20' E 003°49'1 0.5
2014-Nov-20 15:34N 51°20' E 003°49'0 0.2
2014-Nov-20 14:34N 51°20' E 003°49'0 0.0
2014-Nov-20 13:34N 51°20' E 003°49'0 0.0
2014-Nov-20 12:34N 51°20' E 003°49'4 3.8
2014-Nov-20 11:33N 51°22' E 003°44'6 5.7
2014-Nov-20 10:33N 51°28' E 003°40'0 0.0
2014-Nov-20 09:33N 51°28' E 003°40'0 0.0
2014-Nov-20 08:33N 51°28' E 003°40'0 0.0
2014-Nov-20 07:34N 51°28' E 003°40'0 0.0
2014-Nov-20 06:33N 51°28' E 003°40'0 0.0
2014-Nov-20 05:33N 51°28' E 003°40'0 0.0
2014-Nov-20 04:33N 51°28' E 003°40'0 0.0
2014-Nov-20 03:33N 51°28' E 003°40'0 0.0
2014-Nov-20 02:33N 51°28' E 003°40'0 0.0
2014-Nov-20 01:33N 51°28' E 003°40'2 1.5
2014-Nov-20 00:33N 51°27' E 003°42'3 3.4
2014-Nov-19 23:33N 51°26' E 003°37'3 2.6
2014-Nov-19 22:34N 51°28' E 003°40'0 0.0
2014-Nov-19 21:33N 51°28' E 003°40'0 0.0
2014-Nov-19 20:33N 51°28' E 003°40'0 0.0
2014-Nov-19 19:33N 51°28' E 003°40'0 0.0
2014-Nov-19 18:33N 51°28' E 003°40'1 1.1
2014-Nov-19 17:33N 51°28' E 003°42'1 1.1
2014-Nov-19 16:33N 51°28' E 003°40'1 1.3
2014-Nov-19 15:34N 51°28' E 003°42'1 0.8
2014-Nov-19 14:34N 51°28' E 003°41'1 1.0
2014-Nov-19 13:34N 51°27' E 003°42'1 1.5
2014-Nov-19 12:33N 51°28' E 003°40'0 0.0
2014-Nov-19 11:33N 51°28' E 003°40'1 1.4
2014-Nov-19 10:33N 51°27' E 003°42'1 1.3
2014-Nov-19 09:33N 51°28' E 003°41'0 0.1
2014-Nov-19 08:33N 51°28' E 003°40'0 0.0
2014-Nov-19 07:33N 51°28' E 003°40'0 0.0
2014-Nov-19 06:33N 51°28' E 003°40'0 0.0
2014-Nov-19 05:33N 51°28' E 003°40'0 0.0
2014-Nov-19 04:33N 51°28' E 003°40'0 0.0
2014-Nov-19 03:33N 51°28' E 003°40'0 0.0
2014-Nov-19 02:34N 51°28' E 003°40'0 0.0
2014-Nov-19 01:34N 51°28' E 003°40'0 0.0
2014-Nov-19 00:33N 51°28' E 003°40'0 0.0
2014-Nov-18 23:34N 51°28' E 003°40'0 0.0
2014-Nov-18 22:33N 51°28' E 003°40'0 0.0
2014-Nov-18 21:33N 51°28' E 003°40'0 0.0
2014-Nov-18 20:33N 51°28' E 003°40'1 1.0
2014-Nov-18 19:33N 51°28' E 003°42'1 0.8
2014-Nov-18 18:33N 51°27' E 003°42'3 3.3
2014-Nov-18 17:33N 51°26' E 003°37'2 2.4
2014-Nov-18 16:34N 51°28' E 003°40'0 0.0
2014-Nov-18 15:33N 51°28' E 003°40'0 0.0
2014-Nov-18 14:33N 51°28' E 003°40'0 0.0
2014-Nov-18 13:33N 51°28' E 003°40'0 0.0
2014-Nov-18 12:33N 51°28' E 003°40'0 0.0
2014-Nov-18 11:33N 51°28' E 003°40'2 1.5
2014-Nov-18 10:33N 51°29' E 003°42'2 1.5
2014-Nov-18 09:33N 51°28' E 003°40'0 0.0
2014-Nov-18 08:33N 51°28' E 003°40'0 0.0
2014-Nov-18 07:33N 51°28' E 003°40'0 0.0
2014-Nov-18 06:33N 51°28' E 003°40'0 0.0
2014-Nov-18 05:33N 51°28' E 003°40'0 0.0
2014-Nov-18 04:34N 51°28' E 003°40'0 0.0
2014-Nov-18 03:34N 51°28' E 003°40'0 0.0
2014-Nov-18 02:33N 51°28' E 003°40'0 0.0
2014-Nov-18 01:33N 51°28' E 003°40'0 0.0
2014-Nov-18 00:33N 51°28' E 003°40'0 0.0
2014-Nov-17 23:33N 51°28' E 003°40'0 0.0
2014-Nov-17 22:33N 51°28' E 003°40'  

Dump ship's entire track history